Terminal Aerodrome Forecast
Issued by NWS Wilmington, OH

Current Version | Previous Version | Text Only | Print | Product List | Glossary Off
Versions: 1 2 3 4 5 6 7 8 9 10 11 12 13 14 15 16

082
FTUS41 KILN 270336 AAA
TAFILN
TAF AMD
KILN 270336Z 2704/2724 16008KT P6SM BKN250
     FM270600 16010KT P6SM BKN250 WS020/20045KT
     FM271200 19016G25KT P6SM VCSH BKN045 WS020/20045KT
      TEMPO 2712/2714 -SHRA BKN022
     FM271400 19016G25KT P6SM VCSH BKN045
     FM271900 23017G25KT P6SM BKN035=

USA.gov is the U.S. government's official web portal to all federal, state and local government web resources and services.